sensor_id;sensor_type;location;lat;lon;timestamp;pressure;altitude;pressure_sealevel;temperature;humidity
52441;BME280;39611;46.062;8.950;2022-07-03T00:01:54;96829.72;;;22.07;71.15
52441;BME280;39611;46.062;8.950;2022-07-03T00:04:21;96828.94;;;22.06;70.04
52441;BME280;39611;46.062;8.950;2022-07-03T00:06:48;96828.59;;;22.20;69.76
52441;BME280;39611;46.062;8.950;2022-07-03T00:09:15;96824.44;;;22.22;70.62
52441;BME280;39611;46.062;8.950;2022-07-03T00:11:42;96829.03;;;22.10;71.99
52441;BME280;39611;46.062;8.950;2022-07-03T00:14:09;96824.78;;;21.96;73.39
52441;BME280;39611;46.062;8.950;2022-07-03T00:16:35;96832.31;;;21.91;72.54
52441;BME280;39611;46.062;8.950;2022-07-03T00:19:02;96825.69;;;22.00;71.31
52441;BME280;39611;46.062;8.950;2022-07-03T00:21:34;96826.56;;;22.04;72.34
52441;BME280;39611;46.062;8.950;2022-07-03T00:24:08;96827.25;;;22.01;72.11
52441;BME280;39611;46.062;8.950;2022-07-03T00:26:37;96834.22;;;22.02;71.90
52441;BME280;39611;46.062;8.950;2022-07-03T00:29:06;96830.41;;;21.91;72.12
52441;BME280;39611;46.062;8.950;2022-07-03T00:31:35;96832.75;;;21.93;72.70
52441;BME280;39611;46.062;8.950;2022-07-03T00:34:02;96830.16;;;21.96;72.07
52441;BME280;39611;46.062;8.950;2022-07-03T00:36:38;96829.28;;;21.92;72.83
52441;BME280;39611;46.062;8.950;2022-07-03T00:39:05;96832.41;;;21.94;72.57
52441;BME280;39611;46.062;8.950;2022-07-03T00:41:33;96829.16;;;21.89;72.62
52441;BME280;39611;46.062;8.950;2022-07-03T00:44:01;96826.38;;;21.85;73.69
52441;BME280;39611;46.062;8.950;2022-07-03T00:46:28;96834.00;;;21.95;73.12
52441;BME280;39611;46.062;8.950;2022-07-03T00:48:56;96825.69;;;21.76;73.70
52441;BME280;39611;46.062;8.950;2022-07-03T00:51:25;96834.44;;;21.85;72.91
52441;BME280;39611;46.062;8.950;2022-07-03T00:53:57;96829.84;;;21.86;73.14
52441;BME280;39611;46.062;8.950;2022-07-03T00:56:27;96826.03;;;21.62;74.15
52441;BME280;39611;46.062;8.950;2022-07-03T00:58:56;96831.44;;;21.74;72.34
52441;BME280;39611;46.062;8.950;2022-07-03T01:01:29;96828.72;;;21.74;71.97
52441;BME280;39611;46.062;8.950;2022-07-03T01:04:22;96826.69;;;21.71;73.22
52441;BME280;39611;46.062;8.950;2022-07-03T01:07:05;96832.19;;;21.75;73.29
52441;BME280;39611;46.062;8.950;2022-07-03T01:13:14;96820.97;;;21.73;73.40
52441;BME280;39611;46.062;8.950;2022-07-03T01:16:04;96820.75;;;21.41;73.41
52441;BME280;39611;46.062;8.950;2022-07-03T01:18:45;96820.63;;;21.50;74.23
52441;BME280;39611;46.062;8.950;2022-07-03T01:21:38;96818.16;;;21.57;74.29
52441;BME280;39611;46.062;8.950;2022-07-03T01:24:27;96819.41;;;21.59;73.00
52441;BME280;39611;46.062;8.950;2022-07-03T01:26:58;96823.09;;;21.55;72.78
52441;BME280;39611;46.062;8.950;2022-07-03T01:29:33;96825.25;;;21.62;73.57
52441;BME280;39611;46.062;8.950;2022-07-03T01:32:03;96819.97;;;21.65;72.91
52441;BME280;39611;46.062;8.950;2022-07-03T01:34:34;96822.34;;;21.67;72.93
52441;BME280;39611;46.062;8.950;2022-07-03T01:37:02;96816.94;;;21.79;72.55
52441;BME280;39611;46.062;8.950;2022-07-03T01:39:31;96821.31;;;21.59;73.15
52441;BME280;39611;46.062;8.950;2022-07-03T01:42:18;96817.50;;;21.60;73.34
52441;BME280;39611;46.062;8.950;2022-07-03T01:44:47;96820.19;;;21.60;73.58
52441;BME280;39611;46.062;8.950;2022-07-03T01:47:15;96814.47;;;21.62;72.88
52441;BME280;39611;46.062;8.950;2022-07-03T01:49:42;96811.09;;;21.52;72.52
52441;BME280;39611;46.062;8.950;2022-07-03T01:52:10;96815.03;;;21.55;72.41
52441;BME280;39611;46.062;8.950;2022-07-03T01:55:00;96809.53;;;21.51;71.96
52441;BME280;39611;46.062;8.950;2022-07-03T01:57:41;96812.09;;;21.48;72.14
52441;BME280;39611;46.062;8.950;2022-07-03T02:00:09;96807.94;;;21.50;72.41
52441;BME280;39611;46.062;8.950;2022-07-03T02:02:43;96817.25;;;21.53;73.15
52441;BME280;39611;46.062;8.950;2022-07-03T02:05:29;96813.56;;;21.45;72.96
52441;BME280;39611;46.062;8.950;2022-07-03T02:08:12;96808.31;;;21.49;72.25
52441;BME280;39611;46.062;8.950;2022-07-03T02:10:42;96808.25;;;21.36;72.50
52441;BME280;39611;46.062;8.950;2022-07-03T02:13:19;96811.84;;;21.28;73.54
52441;BME280;39611;46.062;8.950;2022-07-03T02:15:50;96804.09;;;21.27;72.41
52441;BME280;39611;46.062;8.950;2022-07-03T02:18:26;96811.53;;;21.42;72.16
52441;BME280;39611;46.062;8.950;2022-07-03T02:21:10;96804.78;;;21.36;72.09
52441;BME280;39611;46.062;8.950;2022-07-03T02:26:51;96806.38;;;21.04;73.59
52441;BME280;39611;46.062;8.950;2022-07-03T02:29:20;96801.63;;;21.34;71.94
52441;BME280;39611;46.062;8.950;2022-07-03T02:32:04;96808.00;;;21.29;73.08
52441;BME280;39611;46.062;8.950;2022-07-03T02:34:33;96810.28;;;21.27;73.20
52441;BME280;39611;46.062;8.950;2022-07-03T02:37:18;96806.56;;;21.32;72.44
52441;BME280;39611;46.062;8.950;2022-07-03T02:39:51;96808.16;;;21.33;72.27
52441;BME280;39611;46.062;8.950;2022-07-03T02:42:30;96809.34;;;21.23;73.53
52441;BME280;39611;46.062;8.950;2022-07-03T02:45:01;96802.09;;;21.36;72.96
52441;BME280;39611;46.062;8.950;2022-07-03T02:48:12;96809.25;;;21.20;73.65
52441;BME280;39611;46.062;8.950;2022-07-03T02:50:46;96816.44;;;21.28;72.87
52441;BME280;39611;46.062;8.950;2022-07-03T02:53:38;96826.69;;;21.13;74.52
52441;BME280;39611;46.062;8.950;2022-07-03T02:56:14;96815.28;;;21.16;74.14
52441;BME280;39611;46.062;8.950;2022-07-03T02:59:07;96812.16;;;21.27;72.68
52441;BME280;39611;46.062;8.950;2022-07-03T03:01:51;96808.78;;;21.17;73.95
52441;BME280;39611;46.062;8.950;2022-07-03T03:04:27;96810.56;;;21.13;73.96
52441;BME280;39611;46.062;8.950;2022-07-03T03:07:02;96817.75;;;21.09;73.00
52441;BME280;39611;46.062;8.950;2022-07-03T03:09:36;96810.13;;;21.24;73.17
52441;BME280;39611;46.062;8.950;2022-07-03T03:12:07;96806.63;;;21.11;71.61
52441;BME280;39611;46.062;8.950;2022-07-03T03:14:48;96804.91;;;21.27;71.93
52441;BME280;39611;46.062;8.950;2022-07-03T03:17:18;96814.03;;;21.14;72.99
52441;BME280;39611;46.062;8.950;2022-07-03T03:19:55;96816.25;;;21.00;74.67
52441;BME280;39611;46.062;8.950;2022-07-03T03:22:33;96821.00;;;20.82;73.99
52441;BME280;39611;46.062;8.950;2022-07-03T03:25:09;96808.06;;;20.96;72.85
52441;BME280;39611;46.062;8.950;2022-07-03T03:27:36;96809.44;;;21.02;71.96
52441;BME280;39611;46.062;8.950;2022-07-03T03:30:03;96807.19;;;21.16;71.90
52441;BME280;39611;46.062;8.950;2022-07-03T03:32:34;96805.75;;;21.07;71.26
52441;BME280;39611;46.062;8.950;2022-07-03T03:35:02;96802.53;;;21.26;71.76
52441;BME280;39611;46.062;8.950;2022-07-03T03:37:30;96810.56;;;21.13;72.58
52441;BME280;39611;46.062;8.950;2022-07-03T03:39:57;96811.22;;;21.10;72.86
52441;BME280;39611;46.062;8.950;2022-07-03T03:42:24;96813.66;;;21.03;73.14
52441;BME280;39611;46.062;8.950;2022-07-03T03:44:50;96811.91;;;21.07;72.14
52441;BME280;39611;46.062;8.950;2022-07-03T03:47:17;96810.66;;;21.05;73.29
52441;BME280;39611;46.062;8.950;2022-07-03T03:49:43;96812.78;;;21.11;73.46
52441;BME280;39611;46.062;8.950;2022-07-03T03:52:11;96806.78;;;21.14;72.45
52441;BME280;39611;46.062;8.950;2022-07-03T03:54:37;96812.69;;;21.08;73.72
52441;BME280;39611;46.062;8.950;2022-07-03T03:57:21;96816.38;;;21.03;73.36
52441;BME280;39611;46.062;8.950;2022-07-03T03:59:48;96807.84;;;21.01;72.55
52441;BME280;39611;46.062;8.950;2022-07-03T04:02:15;96811.69;;;21.12;71.78
52441;BME280;39611;46.062;8.950;2022-07-03T04:04:42;96818.84;;;21.08;73.09
52441;BME280;39611;46.062;8.950;2022-07-03T04:07:08;96821.75;;;21.03;74.11
52441;BME280;39611;46.062;8.950;2022-07-03T04:09:35;96826.44;;;21.06;73.64
52441;BME280;39611;46.062;8.950;2022-07-03T04:12:02;96822.97;;;20.93;74.35
52441;BME280;39611;46.062;8.950;2022-07-03T04:14:29;96826.91;;;20.96;74.06
52441;BME280;39611;46.062;8.950;2022-07-03T04:16:56;96830.47;;;21.00;74.00
52441;BME280;39611;46.062;8.950;2022-07-03T04:19:23;96835.41;;;20.98;74.46
52441;BME280;39611;46.062;8.950;2022-07-03T04:21:49;96830.88;;;20.90;74.16
52441;BME280;39611;46.062;8.950;2022-07-03T04:24:18;96829.81;;;21.03;72.94
52441;BME280;39611;46.062;8.950;2022-07-03T04:26:44;96826.25;;;21.11;73.49
52441;BME280;39611;46.062;8.950;2022-07-03T04:29:11;96833.06;;;21.09;74.20
52441;BME280;39611;46.062;8.950;2022-07-03T04:31:37;96828.72;;;21.04;74.55
52441;BME280;39611;46.062;8.950;2022-07-03T04:34:04;96832.28;;;21.08;73.22
52441;BME280;39611;46.062;8.950;2022-07-03T04:36:30;96828.28;;;21.14;73.83
52441;BME280;39611;46.062;8.950;2022-07-03T04:38:57;96821.31;;;21.13;74.63
52441;BME280;39611;46.062;8.950;2022-07-03T04:41:23;96820.22;;;21.14;74.45
52441;BME280;39611;46.062;8.950;2022-07-03T04:43:50;96814.81;;;21.02;75.65
52441;BME280;39611;46.062;8.950;2022-07-03T04:46:16;96813.72;;;21.15;74.85
52441;BME280;39611;46.062;8.950;2022-07-03T04:48:43;96812.22;;;21.06;74.89
52441;BME280;39611;46.062;8.950;2022-07-03T04:51:10;96815.34;;;20.95;74.43
52441;BME280;39611;46.062;8.950;2022-07-03T04:53:36;96808.66;;;21.02;75.59
52441;BME280;39611;46.062;8.950;2022-07-03T04:56:03;96813.00;;;20.94;77.25
52441;BME280;39611;46.062;8.950;2022-07-03T04:58:29;96820.50;;;21.01;76.59
52441;BME280;39611;46.062;8.950;2022-07-03T05:00:56;96820.63;;;21.04;74.83
52441;BME280;39611;46.062;8.950;2022-07-03T05:03:22;96823.44;;;21.08;74.21
52441;BME280;39611;46.062;8.950;2022-07-03T05:05:49;96816.84;;;21.17;74.29
52441;BME280;39611;46.062;8.950;2022-07-03T05:08:15;96816.44;;;21.28;74.85
52441;BME280;39611;46.062;8.950;2022-07-03T05:10:42;96821.81;;;21.28;75.00
52441;BME280;39611;46.062;8.950;2022-07-03T05:13:08;96830.06;;;21.10;76.96
52441;BME280;39611;46.062;8.950;2022-07-03T05:15:35;96820.13;;;21.23;76.09
52441;BME280;39611;46.062;8.950;2022-07-03T05:18:01;96821.78;;;21.15;75.96
52441;BME280;39611;46.062;8.950;2022-07-03T05:20:28;96815.50;;;21.24;74.55
52441;BME280;39611;46.062;8.950;2022-07-03T05:22:59;96825.25;;;21.16;74.18
52441;BME280;39611;46.062;8.950;2022-07-03T05:25:27;96818.25;;;21.36;74.55
52441;BME280;39611;46.062;8.950;2022-07-03T05:27:54;96822.69;;;21.32;76.13
52441;BME280;39611;46.062;8.950;2022-07-03T05:30:23;96820.00;;;21.32;75.79
52441;BME280;39611;46.062;8.950;2022-07-03T05:32:50;96816.66;;;21.35;74.22
52441;BME280;39611;46.062;8.950;2022-07-03T05:35:17;96822.97;;;21.39;74.84
52441;BME280;39611;46.062;8.950;2022-07-03T05:37:44;96823.38;;;21.29;74.35
52441;BME280;39611;46.062;8.950;2022-07-03T05:40:11;96822.75;;;21.44;73.64
52441;BME280;39611;46.062;8.950;2022-07-03T05:42:38;96819.84;;;21.49;74.62
52441;BME280;39611;46.062;8.950;2022-07-03T05:45:05;96824.91;;;21.51;74.78
52441;BME280;39611;46.062;8.950;2022-07-03T05:47:31;96825.25;;;21.62;73.57
52441;BME280;39611;46.062;8.950;2022-07-03T05:49:59;96816.38;;;21.73;74.87
52441;BME280;39611;46.062;8.950;2022-07-03T05:52:25;96824.22;;;21.78;74.91
52441;BME280;39611;46.062;8.950;2022-07-03T05:54:52;96812.44;;;21.71;74.36
52441;BME280;39611;46.062;8.950;2022-07-03T05:57:18;96820.53;;;21.83;73.32
52441;BME280;39611;46.062;8.950;2022-07-03T05:59:46;96813.13;;;21.92;74.53
52441;BME280;39611;46.062;8.950;2022-07-03T06:02:13;96807.94;;;21.99;74.85
52441;BME280;39611;46.062;8.950;2022-07-03T06:04:40;96822.63;;;22.02;74.78
52441;BME280;39611;46.062;8.950;2022-07-03T06:07:07;96824.78;;;22.09;74.19
52441;BME280;39611;46.062;8.950;2022-07-03T06:09:33;96823.22;;;22.20;73.80
52441;BME280;39611;46.062;8.950;2022-07-03T06:12:00;96821.56;;;22.43;72.01
52441;BME280;39611;46.062;8.950;2022-07-03T06:14:26;96817.41;;;22.86;69.45
52441;BME280;39611;46.062;8.950;2022-07-03T06:16:53;96822.38;;;23.44;66.69
52441;BME280;39611;46.062;8.950;2022-07-03T06:19:19;96816.19;;;24.27;63.78
52441;BME280;39611;46.062;8.950;2022-07-03T06:21:46;96821.78;;;24.92;62.84
52441;BME280;39611;46.062;8.950;2022-07-03T06:24:12;96823.25;;;25.52;60.72
52441;BME280;39611;46.062;8.950;2022-07-03T06:26:39;96821.91;;;26.14;59.21
52441;BME280;39611;46.062;8.950;2022-07-03T06:29:06;96813.91;;;26.52;57.71
52441;BME280;39611;46.062;8.950;2022-07-03T06:31:32;96819.38;;;26.89;58.03
52441;BME280;39611;46.062;8.950;2022-07-03T06:33:59;96817.94;;;26.99;57.29
52441;BME280;39611;46.062;8.950;2022-07-03T06:36:25;96817.97;;;27.40;56.46
52441;BME280;39611;46.062;8.950;2022-07-03T06:38:52;96816.53;;;27.53;55.65
52441;BME280;39611;46.062;8.950;2022-07-03T06:41:18;96811.94;;;27.61;54.85
52441;BME280;39611;46.062;8.950;2022-07-03T06:43:45;96808.56;;;27.75;53.60
52441;BME280;39611;46.062;8.950;2022-07-03T06:46:11;96809.97;;;28.09;53.12
52441;BME280;39611;46.062;8.950;2022-07-03T06:48:38;96809.88;;;27.95;54.03
52441;BME280;39611;46.062;8.950;2022-07-03T06:51:04;96800.81;;;27.80;54.89
52441;BME280;39611;46.062;8.950;2022-07-03T06:53:31;96808.13;;;27.73;53.74
52441;BME280;39611;46.062;8.950;2022-07-03T06:55:57;96801.78;;;27.54;54.65
52441;BME280;39611;46.062;8.950;2022-07-03T06:58:24;96802.53;;;27.48;56.07
52441;BME280;39611;46.062;8.950;2022-07-03T07:00:50;96802.56;;;27.55;55.27
52441;BME280;39611;46.062;8.950;2022-07-03T07:03:17;96797.59;;;27.60;55.32
52441;BME280;39611;46.062;8.950;2022-07-03T07:05:43;96798.50;;;27.34;55.76
52441;BME280;39611;46.062;8.950;2022-07-03T07:08:10;96799.00;;;27.43;56.90
52441;BME280;39611;46.062;8.950;2022-07-03T07:10:36;96791.53;;;27.37;56.77
52441;BME280;39611;46.062;8.950;2022-07-03T07:13:03;96790.91;;;27.13;57.15
52441;BME280;39611;46.062;8.950;2022-07-03T07:15:29;96789.84;;;26.80;58.09
52441;BME280;39611;46.062;8.950;2022-07-03T07:17:55;96785.38;;;26.99;57.67
52441;BME280;39611;46.062;8.950;2022-07-03T07:20:22;96785.44;;;27.06;58.10
52441;BME280;39611;46.062;8.950;2022-07-03T07:22:49;96784.59;;;26.98;57.01
52441;BME280;39611;46.062;8.950;2022-07-03T07:25:15;96779.88;;;26.95;59.53
52441;BME280;39611;46.062;8.950;2022-07-03T07:27:42;96775.72;;;27.05;58.65
52441;BME280;39611;46.062;8.950;2022-07-03T07:30:08;96777.56;;;26.94;58.85
52441;BME280;39611;46.062;8.950;2022-07-03T07:32:35;96781.03;;;26.91;58.29
52441;BME280;39611;46.062;8.950;2022-07-03T07:35:02;96781.03;;;26.94;57.47
52441;BME280;39611;46.062;8.950;2022-07-03T07:37:29;96777.91;;;26.89;57.36
52441;BME280;39611;46.062;8.950;2022-07-03T07:39:55;96772.31;;;26.74;57.67
52441;BME280;39611;46.062;8.950;2022-07-03T07:42:22;96773.88;;;26.75;56.25
52441;BME280;39611;46.062;8.950;2022-07-03T07:44:50;96779.97;;;26.65;54.30
52441;BME280;39611;46.062;8.950;2022-07-03T07:47:17;96776.19;;;26.73;54.86
52441;BME280;39611;46.062;8.950;2022-07-03T07:49:43;96782.97;;;26.56;57.79
52441;BME280;39611;46.062;8.950;2022-07-03T07:52:10;96776.41;;;26.61;56.15
52441;BME280;39611;46.062;8.950;2022-07-03T07:54:36;96773.78;;;26.68;54.70
52441;BME280;39611;46.062;8.950;2022-07-03T07:57:03;96767.16;;;26.62;56.66
52441;BME280;39611;46.062;8.950;2022-07-03T07:59:30;96759.78;;;26.63;55.56
52441;BME280;39611;46.062;8.950;2022-07-03T08:01:56;96765.53;;;26.57;55.55
52441;BME280;39611;46.062;8.950;2022-07-03T08:04:41;96758.19;;;26.58;54.22
52441;BME280;39611;46.062;8.950;2022-07-03T08:07:26;96751.25;;;26.64;52.74
52441;BME280;39611;46.062;8.950;2022-07-03T08:09:52;96755.09;;;26.60;52.65
52441;BME280;39611;46.062;8.950;2022-07-03T08:12:19;96752.41;;;26.60;53.99
52441;BME280;39611;46.062;8.950;2022-07-03T08:14:46;96746.66;;;26.68;54.57
52441;BME280;39611;46.062;8.950;2022-07-03T08:17:13;96748.53;;;26.64;53.84
52441;BME280;39611;46.062;8.950;2022-07-03T08:19:39;96750.53;;;26.67;55.13
52441;BME280;39611;46.062;8.950;2022-07-03T08:22:07;96745.13;;;26.67;55.10
52441;BME280;39611;46.062;8.950;2022-07-03T08:24:33;96748.97;;;26.66;56.02
52441;BME280;39611;46.062;8.950;2022-07-03T08:27:00;96745.50;;;26.69;55.19
52441;BME280;39611;46.062;8.950;2022-07-03T08:29:26;96736.56;;;26.65;53.21
52441;BME280;39611;46.062;8.950;2022-07-03T08:32:01;96748.63;;;26.71;53.73
52441;BME280;39611;46.062;8.950;2022-07-03T08:34:28;96747.94;;;26.78;53.18
52441;BME280;39611;46.062;8.950;2022-07-03T08:36:54;96744.13;;;26.83;50.71
52441;BME280;39611;46.062;8.950;2022-07-03T08:39:21;96751.41;;;26.75;53.42
52441;BME280;39611;46.062;8.950;2022-07-03T08:41:48;96744.81;;;26.76;54.75
52441;BME280;39611;46.062;8.950;2022-07-03T08:44:15;96735.16;;;26.82;52.06
52441;BME280;39611;46.062;8.950;2022-07-03T08:46:42;96743.78;;;26.91;51.69
52441;BME280;39611;46.062;8.950;2022-07-03T08:49:09;96752.31;;;26.90;53.92
52441;BME280;39611;46.062;8.950;2022-07-03T08:51:36;96750.53;;;27.08;52.86
52441;BME280;39611;46.062;8.950;2022-07-03T08:54:04;96750.75;;;26.89;53.39
52441;BME280;39611;46.062;8.950;2022-07-03T08:56:31;96749.88;;;27.18;50.70
52441;BME280;39611;46.062;8.950;2022-07-03T08:59:01;96750.44;;;27.35;51.41
52441;BME280;39611;46.062;8.950;2022-07-03T09:01:29;96746.38;;;27.18;53.80
52441;BME280;39611;46.062;8.950;2022-07-03T09:03:58;96744.88;;;27.20;52.97
52441;BME280;39611;46.062;8.950;2022-07-03T09:06:25;96744.44;;;27.18;53.69
52441;BME280;39611;46.062;8.950;2022-07-03T09:08:53;96738.75;;;27.31;52.24
52441;BME280;39611;46.062;8.950;2022-07-03T09:11:22;96741.09;;;27.32;54.19
52441;BME280;39611;46.062;8.950;2022-07-03T09:13:49;96742.09;;;27.17;57.36
52441;BME280;39611;46.062;8.950;2022-07-03T09:16:20;96742.44;;;27.56;53.71
52441;BME280;39611;46.062;8.950;2022-07-03T09:18:47;96745.16;;;27.56;54.01
52441;BME280;39611;46.062;8.950;2022-07-03T09:21:15;96743.47;;;27.37;55.81
52441;BME280;39611;46.062;8.950;2022-07-03T09:23:43;96755.16;;;27.45;56.74
52441;BME280;39611;46.062;8.950;2022-07-03T09:26:17;96748.16;;;27.44;57.15
52441;BME280;39611;46.062;8.950;2022-07-03T09:28:52;96752.47;;;27.52;54.96
52441;BME280;39611;46.062;8.950;2022-07-03T09:31:21;96741.88;;;27.36;59.48
52441;BME280;39611;46.062;8.950;2022-07-03T09:33:55;96744.94;;;27.28;57.97
52441;BME280;39611;46.062;8.950;2022-07-03T09:36:37;96752.25;;;27.23;59.42
52441;BME280;39611;46.062;8.950;2022-07-03T09:39:19;96748.09;;;27.37;59.23
52441;BME280;39611;46.062;8.950;2022-07-03T09:44:33;96749.59;;;27.31;58.71
52441;BME280;39611;46.062;8.950;2022-07-03T09:47:08;96750.16;;;27.54;57.32
52441;BME280;39611;46.062;8.950;2022-07-03T09:52:43;96751.84;;;27.70;56.77
52441;BME280;39611;46.062;8.950;2022-07-03T10:03:00;96752.66;;;27.74;54.18
52441;BME280;39611;46.062;8.950;2022-07-03T10:05:31;96747.59;;;27.76;55.81
52441;BME280;39611;46.062;8.950;2022-07-03T10:10:33;96753.34;;;28.26;51.00
52441;BME280;39611;46.062;8.950;2022-07-03T10:13:00;96750.13;;;28.02;50.31
52441;BME280;39611;46.062;8.950;2022-07-03T10:15:29;96748.13;;;27.92;51.98
52441;BME280;39611;46.062;8.950;2022-07-03T10:17:57;96755.56;;;28.06;51.53
52441;BME280;39611;46.062;8.950;2022-07-03T10:20:30;96738.13;;;28.14;49.53
52441;BME280;39611;46.062;8.950;2022-07-03T10:23:00;96738.47;;;28.05;49.53
52441;BME280;39611;46.062;8.950;2022-07-03T10:25:29;96733.41;;;27.97;52.20
52441;BME280;39611;46.062;8.950;2022-07-03T10:27:58;96740.47;;;28.19;52.14
52441;BME280;39611;46.062;8.950;2022-07-03T10:31:00;96743.63;;;28.25;51.03
52441;BME280;39611;46.062;8.950;2022-07-03T10:33:28;96737.75;;;28.16;53.07
52441;BME280;39611;46.062;8.950;2022-07-03T10:35:57;96737.34;;;28.14;55.48
52441;BME280;39611;46.062;8.950;2022-07-03T10:38:41;96731.56;;;28.19;51.26
52441;BME280;39611;46.062;8.950;2022-07-03T10:41:19;96732.50;;;28.51;48.01
52441;BME280;39611;46.062;8.950;2022-07-03T10:44:05;96736.38;;;28.58;45.84
52441;BME280;39611;46.062;8.950;2022-07-03T10:46:51;96741.06;;;28.57;47.31
52441;BME280;39611;46.062;8.950;2022-07-03T10:49:25;96726.19;;;28.40;48.79
52441;BME280;39611;46.062;8.950;2022-07-03T10:51:58;96727.69;;;28.23;48.46
52441;BME280;39611;46.062;8.950;2022-07-03T11:12:59;96715.31;;;28.37;52.49
52441;BME280;39611;46.062;8.950;2022-07-03T11:23:29;96700.78;;;28.04;54.51
52441;BME280;39611;46.062;8.950;2022-07-03T11:25:57;96701.59;;;28.12;55.44
52441;BME280;39611;46.062;8.950;2022-07-03T11:38:47;96682.72;;;28.44;49.46
52441;BME280;39611;46.062;8.950;2022-07-03T11:41:16;96679.16;;;28.36;50.69
52441;BME280;39611;46.062;8.950;2022-07-03T11:43:49;96679.13;;;28.32;51.89
52441;BME280;39611;46.062;8.950;2022-07-03T11:46:18;96680.41;;;28.64;49.67
52441;BME280;39611;46.062;8.950;2022-07-03T11:48:45;96678.06;;;28.51;49.57
52441;BME280;39611;46.062;8.950;2022-07-03T11:51:12;96669.50;;;28.49;50.03
52441;BME280;39611;46.062;8.950;2022-07-03T11:53:40;96670.28;;;28.46;54.17
52441;BME280;39611;46.062;8.950;2022-07-03T11:56:08;96671.88;;;28.76;49.89
52441;BME280;39611;46.062;8.950;2022-07-03T11:58:52;96671.09;;;28.75;49.84
52441;BME280;39611;46.062;8.950;2022-07-03T12:03:49;96672.25;;;28.57;53.00
52441;BME280;39611;46.062;8.950;2022-07-03T12:06:17;96667.97;;;28.56;52.19
52441;BME280;39611;46.062;8.950;2022-07-03T12:08:44;96663.28;;;28.49;51.74
52441;BME280;39611;46.062;8.950;2022-07-03T12:11:15;96669.50;;;28.49;51.52
52441;BME280;39611;46.062;8.950;2022-07-03T12:13:43;96657.06;;;28.52;49.51
52441;BME280;39611;46.062;8.950;2022-07-03T12:16:14;96663.66;;;28.51;50.34
52441;BME280;39611;46.062;8.950;2022-07-03T12:18:51;96659.41;;;28.61;51.62
52441;BME280;39611;46.062;8.950;2022-07-03T12:21:20;96657.47;;;28.58;51.32
52441;BME280;39611;46.062;8.950;2022-07-03T12:23:54;96657.47;;;28.61;52.13
52441;BME280;39611;46.062;8.950;2022-07-03T12:26:29;96662.16;;;28.68;50.01
52441;BME280;39611;46.062;8.950;2022-07-03T12:29:02;96654.38;;;28.81;46.77
52441;BME280;39611;46.062;8.950;2022-07-03T12:31:29;96652.44;;;29.03;45.94
52441;BME280;39611;46.062;8.950;2022-07-03T12:33:57;96648.94;;;28.77;50.96
52441;BME280;39611;46.062;8.950;2022-07-03T12:36:25;96648.94;;;28.70;52.45
52441;BME280;39611;46.062;8.950;2022-07-03T12:38:52;96656.31;;;28.73;52.64
52441;BME280;39611;46.062;8.950;2022-07-03T12:41:20;96648.56;;;28.79;50.34
52441;BME280;39611;46.062;8.950;2022-07-03T12:43:49;96649.34;;;28.75;52.86
52441;BME280;39611;46.062;8.950;2022-07-03T12:48:54;96644.25;;;28.85;54.43
52441;BME280;39611;46.062;8.950;2022-07-03T12:54:04;96630.69;;;28.95;47.64
52441;BME280;39611;46.062;8.950;2022-07-03T12:56:31;96634.56;;;28.91;52.06
52441;BME280;39611;46.062;8.950;2022-07-03T12:58:57;96626.00;;;29.17;48.34
52441;BME280;39611;46.062;8.950;2022-07-03T13:02:05;96623.19;;;29.57;45.69
52441;BME280;39611;46.062;8.950;2022-07-03T13:04:35;96628.72;;;29.35;46.61
52441;BME280;39611;46.062;8.950;2022-07-03T13:07:06;96619.38;;;29.22;47.89
52441;BME280;39611;46.062;8.950;2022-07-03T13:09:34;96621.72;;;29.27;45.48
52441;BME280;39611;46.062;8.950;2022-07-03T13:12:02;96623.28;;;29.17;49.03
52441;BME280;39611;46.062;8.950;2022-07-03T13:14:29;96616.69;;;29.18;51.99
52441;BME280;39611;46.062;8.950;2022-07-03T13:16:56;96624.47;;;29.16;51.06
52441;BME280;39611;46.062;8.950;2022-07-03T13:19:25;96617.84;;;29.10;51.20
52441;BME280;39611;46.062;8.950;2022-07-03T13:21:54;96613.16;;;29.04;49.94
52441;BME280;39611;46.062;8.950;2022-07-03T13:24:22;96615.53;;;29.09;49.29
52441;BME280;39611;46.062;8.950;2022-07-03T13:26:49;96610.44;;;29.25;46.37
52441;BME280;39611;46.062;8.950;2022-07-03T13:29:20;96614.25;;;29.67;43.95
52441;BME280;39611;46.062;8.950;2022-07-03T13:31:47;96610.38;;;29.47;45.42
52441;BME280;39611;46.062;8.950;2022-07-03T13:34:13;96608.09;;;29.27;48.52
52441;BME280;39611;46.062;8.950;2022-07-03T13:36:40;96612.38;;;29.21;50.18
52441;BME280;39611;46.062;8.950;2022-07-03T13:39:06;96613.56;;;29.20;48.71
52441;BME280;39611;46.062;8.950;2022-07-03T13:41:35;96597.19;;;29.24;46.95
52441;BME280;39611;46.062;8.950;2022-07-03T13:44:02;96605.78;;;29.15;48.35
52441;BME280;39611;46.062;8.950;2022-07-03T13:46:28;96605.00;;;29.14;46.63
52441;BME280;39611;46.062;8.950;2022-07-03T13:48:55;96600.34;;;29.11;49.42
52441;BME280;39611;46.062;8.950;2022-07-03T13:51:21;96606.56;;;29.08;49.29
52441;BME280;39611;46.062;8.950;2022-07-03T13:53:48;96598.00;;;29.10;49.17
52441;BME280;39611;46.062;8.950;2022-07-03T13:56:16;96598.00;;;29.10;50.01
52441;BME280;39611;46.062;8.950;2022-07-03T13:58:43;96597.59;;;29.29;46.61
52441;BME280;39611;46.062;8.950;2022-07-03T14:01:17;96594.03;;;29.43;44.89
52441;BME280;39611;46.062;8.950;2022-07-03T14:03:43;96586.69;;;29.29;44.28
52441;BME280;39611;46.062;8.950;2022-07-03T14:06:10;96585.50;;;29.30;48.09
52441;BME280;39611;46.062;8.950;2022-07-03T14:08:37;96585.16;;;29.17;49.07
52441;BME280;39611;46.062;8.950;2022-07-03T14:11:04;96588.28;;;29.20;48.69
52441;BME280;39611;46.062;8.950;2022-07-03T14:13:30;96575.00;;;29.36;46.63
52441;BME280;39611;46.062;8.950;2022-07-03T14:15:57;96581.59;;;29.38;47.55
52441;BME280;39611;46.062;8.950;2022-07-03T14:18:23;96577.34;;;29.23;49.25
52441;BME280;39611;46.062;8.950;2022-07-03T14:20:50;96576.94;;;29.28;48.30
52441;BME280;39611;46.062;8.950;2022-07-03T14:23:16;96572.28;;;29.25;50.31